sensor_id;sensor_type;location;lat;lon;timestamp;P1;durP1;ratioP1;P2;durP2;ratioP2
5491;SDS011;2768;53.540;10.224;2024-02-21T00:04:49;25.63;;;16.40;;
5491;SDS011;2768;53.540;10.224;2024-02-21T00:10:43;32.30;;;17.43;;
5491;SDS011;2768;53.540;10.224;2024-02-21T00:16:36;33.83;;;16.90;;
5491;SDS011;2768;53.540;10.224;2024-02-21T00:22:31;30.53;;;16.80;;
5491;SDS011;2768;53.540;10.224;2024-02-21T00:28:25;37.63;;;19.67;;
5491;SDS011;2768;53.540;10.224;2024-02-21T00:34:18;37.40;;;18.13;;
5491;SDS011;2768;53.540;10.224;2024-02-21T00:40:13;27.40;;;17.40;;
5491;SDS011;2768;53.540;10.224;2024-02-21T00:46:11;30.87;;;18.37;;
5491;SDS011;2768;53.540;10.224;2024-02-21T00:52:04;34.17;;;18.10;;
5491;SDS011;2768;53.540;10.224;2024-02-21T00:57:59;30.20;;;18.50;;
5491;SDS011;2768;53.540;10.224;2024-02-21T01:03:53;31.70;;;18.40;;
5491;SDS011;2768;53.540;10.224;2024-02-21T01:09:46;30.77;;;19.03;;
5491;SDS011;2768;53.540;10.224;2024-02-21T01:15:41;33.97;;;18.77;;
5491;SDS011;2768;53.540;10.224;2024-02-21T01:21:34;33.47;;;20.80;;
5491;SDS011;2768;53.540;10.224;2024-02-21T01:27:27;41.13;;;20.90;;
5491;SDS011;2768;53.540;10.224;2024-02-21T01:33:21;34.37;;;20.27;;
5491;SDS011;2768;53.540;10.224;2024-02-21T01:39:15;36.97;;;19.93;;
5491;SDS011;2768;53.540;10.224;2024-02-21T01:45:10;34.03;;;22.70;;
5491;SDS011;2768;53.540;10.224;2024-02-21T01:51:06;37.37;;;21.90;;
5491;SDS011;2768;53.540;10.224;2024-02-21T01:56:59;31.80;;;21.53;;
5491;SDS011;2768;53.540;10.224;2024-02-21T02:02:53;31.10;;;20.50;;
5491;SDS011;2768;53.540;10.224;2024-02-21T02:08:49;26.73;;;19.67;;
5491;SDS011;2768;53.540;10.224;2024-02-21T02:14:42;33.20;;;20.87;;
5491;SDS011;2768;53.540;10.224;2024-02-21T02:20:35;32.03;;;21.43;;
5491;SDS011;2768;53.540;10.224;2024-02-21T02:26:30;39.30;;;21.80;;
5491;SDS011;2768;53.540;10.224;2024-02-21T02:32:23;32.33;;;22.03;;
5491;SDS011;2768;53.540;10.224;2024-02-21T02:38:17;33.37;;;22.20;;
5491;SDS011;2768;53.540;10.224;2024-02-21T02:44:11;33.13;;;21.40;;
5491;SDS011;2768;53.540;10.224;2024-02-21T02:50:05;33.47;;;22.47;;
5491;SDS011;2768;53.540;10.224;2024-02-21T02:55:59;39.63;;;23.87;;
5491;SDS011;2768;53.540;10.224;2024-02-21T03:01:54;43.20;;;24.47;;
5491;SDS011;2768;53.540;10.224;2024-02-21T03:07:47;38.73;;;24.73;;
5491;SDS011;2768;53.540;10.224;2024-02-21T03:13:42;39.93;;;25.63;;
5491;SDS011;2768;53.540;10.224;2024-02-21T03:19:36;49.70;;;27.13;;
5491;SDS011;2768;53.540;10.224;2024-02-21T03:25:29;47.27;;;25.77;;
5491;SDS011;2768;53.540;10.224;2024-02-21T03:31:22;40.40;;;25.23;;
5491;SDS011;2768;53.540;10.224;2024-02-21T03:37:23;48.90;;;26.60;;
5491;SDS011;2768;53.540;10.224;2024-02-21T03:43:17;35.30;;;23.93;;
5491;SDS011;2768;53.540;10.224;2024-02-21T03:49:10;42.30;;;24.87;;
5491;SDS011;2768;53.540;10.224;2024-02-21T03:55:06;43.93;;;24.43;;
5491;SDS011;2768;53.540;10.224;2024-02-21T04:01:00;32.90;;;22.03;;
5491;SDS011;2768;53.540;10.224;2024-02-21T04:06:53;38.90;;;23.70;;
5491;SDS011;2768;53.540;10.224;2024-02-21T04:12:48;43.30;;;24.90;;
5491;SDS011;2768;53.540;10.224;2024-02-21T04:18:42;42.43;;;24.17;;
5491;SDS011;2768;53.540;10.224;2024-02-21T04:24:35;40.00;;;23.50;;
5491;SDS011;2768;53.540;10.224;2024-02-21T04:30:30;42.50;;;24.50;;
5491;SDS011;2768;53.540;10.224;2024-02-21T04:36:23;34.30;;;22.67;;
5491;SDS011;2768;53.540;10.224;2024-02-21T04:42:16;35.43;;;23.23;;
5491;SDS011;2768;53.540;10.224;2024-02-21T04:48:11;35.50;;;22.00;;
5491;SDS011;2768;53.540;10.224;2024-02-21T04:54:04;35.77;;;22.10;;
5491;SDS011;2768;53.540;10.224;2024-02-21T04:59:57;30.40;;;20.20;;
5491;SDS011;2768;53.540;10.224;2024-02-21T05:05:52;34.70;;;22.33;;
5491;SDS011;2768;53.540;10.224;2024-02-21T05:11:45;33.87;;;21.53;;
5491;SDS011;2768;53.540;10.224;2024-02-21T05:17:39;31.73;;;20.50;;
5491;SDS011;2768;53.540;10.224;2024-02-21T05:23:35;26.27;;;19.40;;
5491;SDS011;2768;53.540;10.224;2024-02-21T05:29:30;31.67;;;21.70;;
5491;SDS011;2768;53.540;10.224;2024-02-21T05:35:27;28.37;;;19.93;;
5491;SDS011;2768;53.540;10.224;2024-02-21T05:41:22;25.83;;;18.93;;
5491;SDS011;2768;53.540;10.224;2024-02-21T05:47:15;26.70;;;19.40;;
5491;SDS011;2768;53.540;10.224;2024-02-21T05:53:11;21.70;;;16.83;;
5491;SDS011;2768;53.540;10.224;2024-02-21T05:59:06;23.77;;;15.77;;
5491;SDS011;2768;53.540;10.224;2024-02-21T06:04:59;21.20;;;14.97;;
5491;SDS011;2768;53.540;10.224;2024-02-21T06:10:58;23.90;;;14.60;;
5491;SDS011;2768;53.540;10.224;2024-02-21T06:16:53;19.13;;;14.40;;
5491;SDS011;2768;53.540;10.224;2024-02-21T06:22:47;21.20;;;14.33;;
5491;SDS011;2768;53.540;10.224;2024-02-21T06:28:40;18.77;;;13.47;;
5491;SDS011;2768;53.540;10.224;2024-02-21T06:34:35;19.47;;;13.93;;
5491;SDS011;2768;53.540;10.224;2024-02-21T06:40:29;19.97;;;14.47;;
5491;SDS011;2768;53.540;10.224;2024-02-21T06:46:30;14.53;;;11.60;;
5491;SDS011;2768;53.540;10.224;2024-02-21T06:52:26;18.77;;;13.13;;
5491;SDS011;2768;53.540;10.224;2024-02-21T06:58:19;14.20;;;10.57;;
5491;SDS011;2768;53.540;10.224;2024-02-21T07:04:14;12.80;;;10.20;;
5491;SDS011;2768;53.540;10.224;2024-02-21T07:10:09;14.77;;;10.30;;
5491;SDS011;2768;53.540;10.224;2024-02-21T07:16:03;14.20;;;10.20;;
5491;SDS011;2768;53.540;10.224;2024-02-21T07:21:58;12.87;;;9.90;;
5491;SDS011;2768;53.540;10.224;2024-02-21T07:27:52;13.13;;;10.67;;
5491;SDS011;2768;53.540;10.224;2024-02-21T07:33:46;14.27;;;10.57;;
5491;SDS011;2768;53.540;10.224;2024-02-21T07:39:39;14.70;;;10.40;;
5491;SDS011;2768;53.540;10.224;2024-02-21T07:45:34;14.27;;;11.03;;
5491;SDS011;2768;53.540;10.224;2024-02-21T07:51:27;14.67;;;10.33;;
5491;SDS011;2768;53.540;10.224;2024-02-21T07:57:21;13.00;;;9.77;;
5491;SDS011;2768;53.540;10.224;2024-02-21T08:03:16;12.83;;;8.57;;
5491;SDS011;2768;53.540;10.224;2024-02-21T08:09:09;9.97;;;8.03;;
5491;SDS011;2768;53.540;10.224;2024-02-21T08:15:03;11.13;;;8.03;;
5491;SDS011;2768;53.540;10.224;2024-02-21T08:20:58;7.63;;;6.80;;
5491;SDS011;2768;53.540;10.224;2024-02-21T08:26:51;7.87;;;7.07;;
5491;SDS011;2768;53.540;10.224;2024-02-21T08:32:44;8.93;;;6.40;;
5491;SDS011;2768;53.540;10.224;2024-02-21T08:38:39;7.83;;;6.60;;
5491;SDS011;2768;53.540;10.224;2024-02-21T08:44:33;8.10;;;7.13;;
5491;SDS011;2768;53.540;10.224;2024-02-21T08:50:26;10.20;;;6.97;;
5491;SDS011;2768;53.540;10.224;2024-02-21T08:56:22;9.90;;;5.43;;
5491;SDS011;2768;53.540;10.224;2024-02-21T09:02:16;10.07;;;5.10;;
5491;SDS011;2768;53.540;10.224;2024-02-21T09:08:09;13.77;;;4.70;;
5491;SDS011;2768;53.540;10.224;2024-02-21T09:14:04;10.50;;;4.73;;
5491;SDS011;2768;53.540;10.224;2024-02-21T09:19:58;15.90;;;4.83;;
5491;SDS011;2768;53.540;10.224;2024-02-21T09:25:55;13.57;;;5.17;;
5491;SDS011;2768;53.540;10.224;2024-02-21T09:31:50;13.23;;;5.37;;
5491;SDS011;2768;53.540;10.224;2024-02-21T09:38:08;10.50;;;5.30;;
5491;SDS011;2768;53.540;10.224;2024-02-21T09:44:01;11.73;;;6.20;;
5491;SDS011;2768;53.540;10.224;2024-02-21T09:49:56;15.27;;;7.33;;
5491;SDS011;2768;53.540;10.224;2024-02-21T09:55:50;14.37;;;8.13;;
5491;SDS011;2768;53.540;10.224;2024-02-21T10:01:44;13.93;;;7.37;;
5491;SDS011;2768;53.540;10.224;2024-02-21T10:07:41;10.93;;;5.93;;
5491;SDS011;2768;53.540;10.224;2024-02-21T10:13:34;9.50;;;5.50;;
5491;SDS011;2768;53.540;10.224;2024-02-21T10:19:30;9.37;;;5.83;;
5491;SDS011;2768;53.540;10.224;2024-02-21T10:25:24;8.80;;;5.20;;
5491;SDS011;2768;53.540;10.224;2024-02-21T10:31:21;9.83;;;6.57;;
5491;SDS011;2768;53.540;10.224;2024-02-21T10:37:15;10.70;;;8.20;;
5491;SDS011;2768;53.540;10.224;2024-02-21T10:43:12;13.00;;;9.70;;
5491;SDS011;2768;53.540;10.224;2024-02-21T10:49:10;19.40;;;12.43;;
5491;SDS011;2768;53.540;10.224;2024-02-21T10:55:08;23.97;;;13.23;;
5491;SDS011;2768;53.540;10.224;2024-02-21T11:01:10;24.00;;;15.20;;
5491;SDS011;2768;53.540;10.224;2024-02-21T11:07:06;24.90;;;16.10;;
5491;SDS011;2768;53.540;10.224;2024-02-21T11:13:06;26.13;;;16.73;;
5491;SDS011;2768;53.540;10.224;2024-02-21T11:19:05;27.90;;;15.70;;
5491;SDS011;2768;53.540;10.224;2024-02-21T11:25:05;33.20;;;16.93;;
5491;SDS011;2768;53.540;10.224;2024-02-21T11:31:08;23.83;;;16.70;;
5491;SDS011;2768;53.540;10.224;2024-02-21T11:37:03;24.60;;;14.80;;
5491;SDS011;2768;53.540;10.224;2024-02-21T11:43:06;22.13;;;14.33;;
5491;SDS011;2768;53.540;10.224;2024-02-21T11:48:59;24.13;;;14.43;;
5491;SDS011;2768;53.540;10.224;2024-02-21T11:54:56;22.17;;;13.87;;
5491;SDS011;2768;53.540;10.224;2024-02-21T12:00:56;23.30;;;13.63;;
5491;SDS011;2768;53.540;10.224;2024-02-21T12:06:50;21.83;;;11.77;;
5491;SDS011;2768;53.540;10.224;2024-02-21T12:12:47;19.40;;;13.13;;
5491;SDS011;2768;53.540;10.224;2024-02-21T12:18:44;17.80;;;12.40;;
5491;SDS011;2768;53.540;10.224;2024-02-21T12:24:37;19.83;;;11.50;;
5491;SDS011;2768;53.540;10.224;2024-02-21T12:30:36;17.93;;;13.00;;
5491;SDS011;2768;53.540;10.224;2024-02-21T12:36:35;20.23;;;13.70;;
5491;SDS011;2768;53.540;10.224;2024-02-21T12:42:33;16.77;;;13.13;;
5491;SDS011;2768;53.540;10.224;2024-02-21T12:48:28;17.63;;;14.40;;
5491;SDS011;2768;53.540;10.224;2024-02-21T12:54:21;23.97;;;14.00;;
5491;SDS011;2768;53.540;10.224;2024-02-21T13:00:15;17.97;;;13.40;;
5491;SDS011;2768;53.540;10.224;2024-02-21T13:06:11;23.50;;;14.87;;
5491;SDS011;2768;53.540;10.224;2024-02-21T13:12:05;18.30;;;13.40;;
5491;SDS011;2768;53.540;10.224;2024-02-21T13:17:58;22.87;;;14.27;;
5491;SDS011;2768;53.540;10.224;2024-02-21T13:23:53;23.17;;;14.53;;
5491;SDS011;2768;53.540;10.224;2024-02-21T13:29:48;22.90;;;15.00;;
5491;SDS011;2768;53.540;10.224;2024-02-21T13:35:41;23.80;;;15.37;;
5491;SDS011;2768;53.540;10.224;2024-02-21T13:41:36;19.23;;;15.07;;
5491;SDS011;2768;53.540;10.224;2024-02-21T13:47:29;18.10;;;13.57;;
5491;SDS011;2768;53.540;10.224;2024-02-21T13:53:23;26.53;;;15.20;;
5491;SDS011;2768;53.540;10.224;2024-02-21T13:59:18;23.90;;;15.07;;
5491;SDS011;2768;53.540;10.224;2024-02-21T14:05:11;22.10;;;15.83;;
5491;SDS011;2768;53.540;10.224;2024-02-21T14:11:06;19.60;;;15.10;;
5491;SDS011;2768;53.540;10.224;2024-02-21T14:17:02;19.23;;;14.60;;
5491;SDS011;2768;53.540;10.224;2024-02-21T14:22:56;19.80;;;14.50;;
5491;SDS011;2768;53.540;10.224;2024-02-21T14:28:49;17.80;;;14.17;;
5491;SDS011;2768;53.540;10.224;2024-02-21T14:34:44;18.07;;;13.67;;
5491;SDS011;2768;53.540;10.224;2024-02-21T14:40:38;16.43;;;14.07;;
5491;SDS011;2768;53.540;10.224;2024-02-21T14:46:31;18.17;;;12.97;;
5491;SDS011;2768;53.540;10.224;2024-02-21T14:52:27;16.73;;;11.83;;
5491;SDS011;2768;53.540;10.224;2024-02-21T14:58:21;16.20;;;11.37;;
5491;SDS011;2768;53.540;10.224;2024-02-21T15:04:14;20.03;;;11.60;;
5491;SDS011;2768;53.540;10.224;2024-02-21T15:10:09;11.77;;;9.63;;
5491;SDS011;2768;53.540;10.224;2024-02-21T15:16:03;15.30;;;10.13;;
5491;SDS011;2768;53.540;10.224;2024-02-21T15:21:57;13.00;;;9.07;;
5491;SDS011;2768;53.540;10.224;2024-02-21T15:27:51;14.23;;;8.23;;
5491;SDS011;2768;53.540;10.224;2024-02-21T15:33:45;11.50;;;8.40;;
5491;SDS011;2768;53.540;10.224;2024-02-21T15:39:38;12.80;;;8.10;;
5491;SDS011;2768;53.540;10.224;2024-02-21T15:45:33;9.77;;;7.50;;
5491;SDS011;2768;53.540;10.224;2024-02-21T15:51:26;7.83;;;7.03;;
5491;SDS011;2768;53.540;10.224;2024-02-21T15:57:21;8.80;;;6.70;;
5491;SDS011;2768;53.540;10.224;2024-02-21T16:03:16;6.80;;;6.10;;
5491;SDS011;2768;53.540;10.224;2024-02-21T16:09:09;8.90;;;6.00;;
5491;SDS011;2768;53.540;10.224;2024-02-21T16:15:03;6.00;;;5.00;;
5491;SDS011;2768;53.540;10.224;2024-02-21T16:20:58;6.13;;;4.93;;
5491;SDS011;2768;53.540;10.224;2024-02-21T16:26:52;9.73;;;4.80;;
5491;SDS011;2768;53.540;10.224;2024-02-21T16:32:45;6.10;;;5.50;;
5491;SDS011;2768;53.540;10.224;2024-02-21T16:38:40;5.40;;;4.87;;
5491;SDS011;2768;53.540;10.224;2024-02-21T16:44:33;5.50;;;5.00;;
5491;SDS011;2768;53.540;10.224;2024-02-21T16:50:27;7.83;;;4.67;;
5491;SDS011;2768;53.540;10.224;2024-02-21T16:56:23;4.90;;;4.50;;
5491;SDS011;2768;53.540;10.224;2024-02-21T17:02:16;7.37;;;4.27;;
5491;SDS011;2768;53.540;10.224;2024-02-21T17:08:11;5.83;;;4.70;;
5491;SDS011;2768;53.540;10.224;2024-02-21T17:14:06;6.63;;;4.43;;
5491;SDS011;2768;53.540;10.224;2024-02-21T17:20:00;5.90;;;4.33;;
5491;SDS011;2768;53.540;10.224;2024-02-21T17:25:54;5.87;;;4.60;;
5491;SDS011;2768;53.540;10.224;2024-02-21T17:31:49;6.87;;;5.00;;
5491;SDS011;2768;53.540;10.224;2024-02-21T17:37:42;6.77;;;4.50;;
5491;SDS011;2768;53.540;10.224;2024-02-21T17:43:35;7.70;;;5.20;;
5491;SDS011;2768;53.540;10.224;2024-02-21T17:49:30;6.77;;;5.40;;
5491;SDS011;2768;53.540;10.224;2024-02-21T17:55:24;8.53;;;5.80;;
5491;SDS011;2768;53.540;10.224;2024-02-21T18:01:18;8.30;;;4.90;;
5491;SDS011;2768;53.540;10.224;2024-02-21T18:07:13;6.87;;;4.80;;
5491;SDS011;2768;53.540;10.224;2024-02-21T18:13:07;8.77;;;5.13;;
5491;SDS011;2768;53.540;10.224;2024-02-21T18:19:01;11.13;;;5.73;;
5491;SDS011;2768;53.540;10.224;2024-02-21T18:24:56;7.13;;;5.63;;
5491;SDS011;2768;53.540;10.224;2024-02-21T18:30:50;6.93;;;5.47;;
5491;SDS011;2768;53.540;10.224;2024-02-21T18:36:44;7.90;;;4.93;;
5491;SDS011;2768;53.540;10.224;2024-02-21T18:42:39;8.00;;;5.23;;
5491;SDS011;2768;53.540;10.224;2024-02-21T18:48:33;7.27;;;5.53;;
5491;SDS011;2768;53.540;10.224;2024-02-21T18:54:26;11.53;;;5.20;;
5491;SDS011;2768;53.540;10.224;2024-02-21T19:00:21;10.97;;;5.80;;
5491;SDS011;2768;53.540;10.224;2024-02-21T19:06:16;7.10;;;5.40;;
5491;SDS011;2768;53.540;10.224;2024-02-21T19:12:36;7.03;;;5.00;;
5491;SDS011;2768;53.540;10.224;2024-02-21T19:18:31;6.97;;;4.63;;
5491;SDS011;2768;53.540;10.224;2024-02-21T19:24:24;8.83;;;4.60;;
5491;SDS011;2768;53.540;10.224;2024-02-21T19:30:17;6.37;;;4.67;;
5491;SDS011;2768;53.540;10.224;2024-02-21T19:36:14;5.70;;;4.30;;
5491;SDS011;2768;53.540;10.224;2024-02-21T19:42:07;5.83;;;4.20;;
5491;SDS011;2768;53.540;10.224;2024-02-21T19:48:01;11.10;;;4.23;;
5491;SDS011;2768;53.540;10.224;2024-02-21T19:53:56;7.80;;;4.20;;
5491;SDS011;2768;53.540;10.224;2024-02-21T20:00:10;5.70;;;3.40;;
5491;SDS011;2768;53.540;10.224;2024-02-21T20:06:05;6.87;;;3.70;;
5491;SDS011;2768;53.540;10.224;2024-02-21T20:12:02;8.17;;;4.10;;
5491;SDS011;2768;53.540;10.224;2024-02-21T20:17:56;8.93;;;3.80;;
5491;SDS011;2768;53.540;10.224;2024-02-21T20:23:51;7.70;;;3.47;;
5491;SDS011;2768;53.540;10.224;2024-02-21T20:29:46;9.93;;;3.20;;
5491;SDS011;2768;53.540;10.224;2024-02-21T20:35:39;6.70;;;3.10;;
5491;SDS011;2768;53.540;10.224;2024-02-21T20:41:32;7.90;;;3.20;;
5491;SDS011;2768;53.540;10.224;2024-02-21T20:47:28;5.47;;;3.50;;
5491;SDS011;2768;53.540;10.224;2024-02-21T20:53:21;4.97;;;3.20;;
5491;SDS011;2768;53.540;10.224;2024-02-21T20:59:17;5.10;;;3.53;;
5491;SDS011;2768;53.540;10.224;2024-02-21T21:05:12;8.00;;;2.90;;
5491;SDS011;2768;53.540;10.224;2024-02-21T21:11:06;4.50;;;2.90;;
5491;SDS011;2768;53.540;10.224;2024-02-21T21:16:59;5.33;;;3.50;;
5491;SDS011;2768;53.540;10.224;2024-02-21T21:22:56;6.97;;;3.57;;
5491;SDS011;2768;53.540;10.224;2024-02-21T21:28:49;8.80;;;3.60;;
5491;SDS011;2768;53.540;10.224;2024-02-21T21:34:48;4.93;;;3.83;;
5491;SDS011;2768;53.540;10.224;2024-02-21T21:40:44;7.50;;;3.90;;
5491;SDS011;2768;53.540;10.224;2024-02-21T21:46:37;5.77;;;3.17;;
5491;SDS011;2768;53.540;10.224;2024-02-21T21:52:33;7.17;;;3.33;;
5491;SDS011;2768;53.540;10.224;2024-02-21T21:58:28;8.67;;;3.50;;
5491;SDS011;2768;53.540;10.224;2024-02-21T22:04:21;3.40;;;3.07;;
5491;SDS011;2768;53.540;10.224;2024-02-21T22:10:14;4.63;;;3.03;;
5491;SDS011;2768;53.540;10.224;2024-02-21T22:16:09;4.30;;;3.20;;
5491;SDS011;2768;53.540;10.224;2024-02-21T22:22:02;6.00;;;3.40;;
5491;SDS011;2768;53.540;10.224;2024-02-21T22:27:56;5.40;;;3.17;;
5491;SDS011;2768;53.540;10.224;2024-02-21T22:33:51;5.50;;;3.30;;
5491;SDS011;2768;53.540;10.224;2024-02-21T22:39:48;5.33;;;3.27;;
5491;SDS011;2768;53.540;10.224;2024-02-21T22:45:42;6.80;;;3.50;;
5491;SDS011;2768;53.540;10.224;2024-02-21T22:51:36;8.57;;;3.53;;
5491;SDS011;2768;53.540;10.224;2024-02-21T22:57:30;7.80;;;3.47;;
5491;SDS011;2768;53.540;10.224;2024-02-21T23:03:23;6.90;;;3.70;;
5491;SDS011;2768;53.540;10.224;2024-02-21T23:09:18;4.40;;;3.20;;
5491;SDS011;2768;53.540;10.224;2024-02-21T23:15:11;5.43;;;3.80;;
5491;SDS011;2768;53.540;10.224;2024-02-21T23:21:09;4.67;;;3.40;;
5491;SDS011;2768;53.540;10.224;2024-02-21T23:27:04;7.70;;;3.70;;
5491;SDS011;2768;53.540;10.224;2024-02-21T23:32:57;6.67;;;3.40;;
5491;SDS011;2768;53.540;10.224;2024-02-21T23:38:51;4.80;;;3.33;;
5491;SDS011;2768;53.540;10.224;2024-02-21T23:44:46;6.20;;;3.77;;
5491;SDS011;2768;53.540;10.224;2024-02-21T23:50:40;6.00;;;3.90;;
5491;SDS011;2768;53.540;10.224;2024-02-21T23:56:34;5.60;;;3.60;;
